Time;durP1;ratioP1;P1;durP2;ratioP2;P2;SDS_P1;SDS_P2;PMS_P1;PMS_P2;Temp;Humidity;BMP_temperature;BMP_pressure;BME280_temperature;BME280_humidity;BME280_pressure;Samples;Min_cycle;Max_cycle;Signal;HPM_P1;HPM_P2
2023/01/16 00:01:39;;;;;;;7.03;6.23;;;;;;;8.39;100.00;4222.41;5078268;28;20647;-64
2023/01/16 00:04:06;;;;;;;7.03;6.63;;;;;;;8.35;100.00;4222.00;5078272;28;20261;-64
2023/01/16 00:06:33;;;;;;;6.27;5.87;;;;;;;8.52;100.00;4223.97;5077799;28;20185;-64
2023/01/16 00:09:00;;;;;;;6.47;6.03;;;;;;;8.46;100.00;4223.31;5078236;28;20208;-64
2023/01/16 00:11:27;;;;;;;8.40;6.27;;;;;;;8.51;100.00;4223.91;5077734;28;20184;-63
2023/01/16 00:13:55;;;;;;;7.10;6.50;;;;;;;8.42;100.00;4860.50;5077787;28;20208;-63
2023/01/16 00:16:22;;;;;;;6.83;6.10;;;;;;;8.37;100.00;3584.69;5077641;28;20189;-63
2023/01/16 00:18:49;;;;;;;5.37;5.03;;;;;;;8.44;100.00;1673.38;5078080;28;20579;-63
2023/01/16 00:21:17;;;;;;;7.10;5.23;;;;;;;8.35;100.00;80.31;5078056;28;20207;-64
2023/01/16 00:23:44;;;;;;;6.43;5.80;;;;;;;8.22;100.00;-2465.91;5077866;28;20188;-65
2023/01/16 00:26:11;;;;;;;6.83;5.90;;;;;;;8.25;100.00;-4055.91;5077935;28;20652;-65
2023/01/16 00:28:38;;;;;;;8.03;6.30;;;;;;;8.20;100.00;-5009.44;5076506;28;20265;-63
2023/01/16 00:31:07;;;;;;;7.30;6.60;;;;;;;8.24;100.00;-5645.16;5078095;28;20216;-65
2023/01/16 00:33:34;;;;;;;11.70;7.23;;;;;;;8.37;100.00;-5963.53;5077758;28;20212;-64
2023/01/16 00:36:02;;;;;;;8.83;8.00;;;;;;;8.33;100.00;-6916.56;5077527;28;20238;-65
2023/01/16 00:38:28;;;;;;;10.00;7.50;;;;;;;8.27;100.00;-7233.84;5077558;28;20185;-63
2023/01/16 00:40:55;;;;;;;8.10;7.60;;;;;;;7.91;100.00;-7548.88;5077463;28;20193;-63
2023/01/16 00:43:22;;;;;;;7.50;6.93;;;;;;;8.31;100.00;-7551.75;5077328;28;20280;-64
2023/01/16 00:45:49;;;;;;;10.17;7.47;;;;;;;8.30;100.00;-7551.66;5077741;28;20619;-64
2023/01/16 00:48:17;;;;;;;7.40;6.80;;;;;;;8.31;100.00;-7551.75;5077482;28;20192;-64
2023/01/16 00:50:44;;;;;;;8.93;6.47;;;;;;;8.27;100.00;-7233.84;5077771;28;20256;-63
2023/01/16 00:53:11;;;;;;;6.40;6.00;;;;;;;8.23;100.00;-7868.75;5077501;28;20216;-65
2023/01/16 00:55:38;;;;;;;6.63;6.13;;;;;;;8.30;100.00;-7234.00;5077643;28;20691;-64
2023/01/16 00:58:05;;;;;;;7.53;5.63;;;;;;;8.31;100.00;-6598.75;5077561;28;20615;-64
2023/01/16 01:00:32;;;;;;;5.07;4.77;;;;;;;8.26;100.00;-6280.75;5075130;28;20772;-63
2023/01/16 01:02:59;;;;;;;4.97;4.43;;;;;;;8.35;100.00;-6281.19;5074448;28;20181;-64
2023/01/16 01:05:27;;;;;;;5.23;4.90;;;;;;;8.40;100.00;-5963.66;5074039;28;20280;-64
2023/01/16 01:07:54;;;;;;;5.23;4.83;;;;;;;8.29;100.00;-5963.16;5074456;28;20191;-64
2023/01/16 01:10:21;;;;;;;4.80;4.60;;;;;;;8.38;100.00;-6281.34;5074110;28;20199;-64
2023/01/16 01:12:48;;;;;;;4.70;4.47;;;;;;;8.43;100.00;-6281.63;5073882;28;20203;-64
2023/01/16 01:15:15;;;;;;;4.87;4.57;;;;;;;8.48;100.00;-6599.66;5074182;28;20204;-63
2023/01/16 01:17:42;;;;;;;4.83;4.63;;;;;;;8.56;100.00;-6282.28;5074251;28;20590;-64
2023/01/16 01:20:10;;;;;;;5.17;4.80;;;;;;;8.56;100.00;-6600.13;5073767;28;20196;-65
2023/01/16 01:22:38;;;;;;;4.43;4.23;;;;;;;8.54;100.00;-6917.81;5073815;28;20271;-64
2023/01/16 01:25:06;;;;;;;4.80;4.60;;;;;;;8.60;100.00;-7236.03;5073725;28;20276;-63
2023/01/16 01:27:33;;;;;;;4.97;4.63;;;;;;;8.60;100.00;-7553.84;5074002;28;20191;-64
2023/01/16 01:30:00;;;;;;;6.40;5.80;;;;;;;8.59;100.00;-7871.53;5073552;28;20187;-64
2023/01/16 01:32:26;;;;;;;5.63;5.33;;;;;;;8.63;100.00;-8189.56;5073416;28;20570;-63
2023/01/16 01:34:53;;;;;;;5.03;4.83;;;;;;;8.68;100.00;-8189.97;5073463;28;20232;-64
2023/01/16 01:37:20;;;;;;;5.50;5.13;;;;;;;8.67;100.00;-8507.63;5073444;28;20229;-64
2023/01/16 01:39:50;;;;;;;4.60;4.40;;;;;;;8.64;100.00;-8507.38;5074213;28;20185;-63
2023/01/16 01:45:06;;;;;;;5.10;4.90;;;;;;;8.61;100.00;-9142.38;5073845;28;20541;-65
2023/01/16 01:47:35;;;;;;;8.10;5.37;;;;;;;8.54;100.00;-8824.13;5073646;28;20200;-63
2023/01/16 01:50:13;;;;;;;5.87;5.10;;;;;;;8.62;100.00;-9142.53;5073586;28;20211;-64
2023/01/16 01:52:41;;;;;;;5.70;5.27;;;;;;;8.45;100.00;-8505.72;5073237;28;20185;-65
2023/01/16 01:55:12;;;;;;;4.80;4.50;;;;;;;8.52;100.00;-8823.94;5073651;28;20548;-64
2023/01/16 01:57:42;;;;;;;5.57;5.10;;;;;;;8.32;100.00;-8504.56;5073474;28;20181;-64
2023/01/16 02:00:12;;;;;;;4.70;4.50;;;;;;;8.44;100.00;-8823.16;5073462;28;20189;-64
2023/01/16 02:02:45;;;;;;;5.03;4.70;;;;;;;8.68;100.00;-8189.97;5073419;28;20188;-63
2023/01/16 02:05:17;;;;;;;5.03;4.70;;;;;;;8.70;100.00;-8190.09;5073393;28;20752;-64
2023/01/16 02:07:45;;;;;;;4.83;4.60;;;;;;;8.64;100.00;-7871.91;5073040;28;20284;-64
2023/01/16 02:10:24;;;;;;;4.97;4.67;;;;;;;8.69;100.00;-8190.03;5072846;28;20276;-64
2023/01/16 02:12:52;;;;;;;4.23;3.83;;;;;;;8.67;100.00;-8189.91;5072746;28;20192;-64
2023/01/16 02:15:22;;;;;;;4.43;4.13;;;;;;;8.70;100.00;-8825.63;5072940;28;20258;-64
2023/01/16 02:20:46;;;;;;;4.43;4.23;;;;;;;8.87;100.00;-9144.88;5072981;28;20713;-65
2023/01/16 02:23:45;;;;;;;3.93;3.53;;;;;;;8.86;100.00;-9462.50;5071572;28;20222;-63
2023/01/16 02:26:43;;;;;;;5.27;3.93;;;;;;;8.89;100.00;-10098.22;5072500;28;20185;-64
2023/01/16 02:29:26;;;;;;;4.33;3.93;;;;;;;8.90;100.00;-10733.69;5073009;28;20662;-65
2023/01/16 02:32:02;;;;;;;4.17;3.83;;;;;;;8.87;100.00;-10733.25;5072487;28;20189;-64
2023/01/16 02:34:43;;;;;;;4.33;4.03;;;;;;;8.86;100.00;-11368.25;5072578;28;20242;-64
2023/01/16 02:37:21;;;;;;;4.40;4.10;;;;;;;8.83;100.00;-11367.91;5072326;28;20184;-65
2023/01/16 02:39:57;;;;;;;4.23;4.00;;;;;;;8.68;100.00;-11683.41;5072387;28;20196;-64
2023/01/16 02:42:31;;;;;;;3.93;3.77;;;;;;;8.63;100.00;-11682.72;5072708;28;20192;-64
2023/01/16 02:45:05;;;;;;;4.17;3.87;;;;;;;8.75;100.00;-11684.25;5072265;28;20188;-63
2023/01/16 02:47:40;;;;;;;4.67;4.30;;;;;;;8.77;100.00;-11367.03;5072095;28;20195;-64
2023/01/16 02:50:12;;;;;;;5.30;4.30;;;;;;;8.77;100.00;-11049.53;5072221;28;20189;-64
2023/01/16 02:52:44;;;;;;;4.60;4.23;;;;;;;8.76;100.00;-11366.97;5072056;28;20188;-64
2023/01/16 02:55:20;;;;;;;4.27;4.03;;;;;;;8.74;100.00;-11366.72;5072064;28;20208;-64
2023/01/16 02:57:51;;;;;;;4.30;3.97;;;;;;;8.73;100.00;-11366.50;5071922;28;20184;-65
2023/01/16 03:00:20;;;;;;;3.73;3.50;;;;;;;8.76;100.00;-11049.41;5071817;28;20193;-65
2023/01/16 03:02:48;;;;;;;4.20;4.00;;;;;;;8.66;100.00;-11048.25;5072333;28;20192;-64
2023/01/16 03:05:15;;;;;;;4.03;3.73;;;;;;;8.74;100.00;-11366.66;5072499;28;20185;-63
2023/01/16 03:08:29;;;;;;;4.43;4.23;;;;;;;8.67;100.00;-11365.84;5072455;28;20189;-64
2023/01/16 03:11:22;;;;;;;4.10;3.90;;;;;;;8.68;100.00;-11365.97;4990887;28;20232;-64
2023/01/16 03:14:03;;;;;;;4.20;3.73;;;;;;;8.64;100.00;-11365.44;5066818;28;20200;-65
2023/01/16 03:16:35;;;;;;;4.50;4.30;;;;;;;8.67;100.00;-11365.78;5072061;28;20204;-64
2023/01/16 03:19:16;;;;;;;6.70;4.50;;;;;;;8.63;100.00;-11365.25;5071996;28;20223;-64
2023/01/16 03:22:00;;;;;;;3.93;3.73;;;;;;;8.53;100.00;-11363.91;5072241;28;20181;-64
2023/01/16 03:24:37;;;;;;;4.03;3.73;;;;;;;8.56;100.00;-11364.38;5071361;28;20610;-64
2023/01/16 03:27:11;;;;;;;3.80;3.60;;;;;;;8.56;100.00;-11681.75;5072295;28;20195;-64
2023/01/16 03:29:46;;;;;;;3.93;3.73;;;;;;;8.64;100.00;-11682.84;5071876;28;20275;-64
2023/01/16 03:32:23;;;;;;;4.40;4.00;;;;;;;8.59;100.00;-11047.34;5072117;28;20185;-64
2023/01/16 03:34:55;;;;;;;4.53;3.60;;;;;;;8.52;100.00;-10728.97;5071633;28;20232;-64
2023/01/16 03:37:29;;;;;;;4.13;3.93;;;;;;;8.52;100.00;-10729.03;5071704;28;20197;-64
2023/01/16 03:40:01;;;;;;;3.73;3.53;;;;;;;8.46;100.00;-10728.31;5071968;28;20189;-64
2023/01/16 03:42:34;;;;;;;3.80;3.60;;;;;;;8.36;100.00;-10727.06;5071966;28;20185;-63
2023/01/16 03:45:06;;;;;;;3.80;3.60;;;;;;;8.40;100.00;-10727.56;5071585;28;20203;-63
2023/01/16 03:47:40;;;;;;;4.70;4.30;;;;;;;8.40;100.00;-10410.19;5071834;28;20713;-64
2023/01/16 03:50:11;;;;;;;4.00;3.70;;;;;;;8.41;100.00;-10410.31;5072137;28;20187;-65
2023/01/16 03:52:42;;;;;;;3.87;3.57;;;;;;;8.36;100.00;-10409.72;5072455;28;20587;-63
2023/01/16 03:55:15;;;;;;;7.37;6.33;;;;;;;8.26;100.00;-9773.81;5072280;28;20219;-64
2023/01/16 03:57:48;;;;;;;10.03;7.93;;;;;;;8.32;100.00;-10091.88;5073184;28;20188;-64
2023/01/16 04:00:16;;;;;;;12.43;7.43;;;;;;;8.33;100.00;-10409.34;5075615;28;20196;-64
2023/01/16 04:02:47;;;;;;;9.17;8.27;;;;;;;8.30;100.00;-10409.00;5075839;28;20189;-64
2023/01/16 04:05:19;;;;;;;7.50;7.00;;;;;;;8.34;100.00;-9774.63;5074328;28;20215;-64
2023/01/16 04:07:53;;;;;;;8.70;6.87;;;;;;;8.34;100.00;-10409.47;5074039;28;20195;-64
2023/01/16 04:10:25;;;;;;;6.00;5.60;;;;;;;8.22;100.00;-9773.38;5072781;28;20199;-64
2023/01/16 04:12:55;;;;;;;9.00;4.73;;;;;;;8.37;100.00;-10409.81;5071829;28;20203;-64
2023/01/16 04:15:24;;;;;;;8.23;4.60;;;;;;;8.36;100.00;-10409.66;5071748;28;20205;-64
2023/01/16 04:17:52;;;;;;;3.93;3.60;;;;;;;8.36;100.00;-10727.00;5071418;28;20193;-63
2023/01/16 04:20:21;;;;;;;5.13;3.73;;;;;;;8.38;100.00;-10727.31;5071514;28;20641;-64
2023/01/16 04:22:49;;;;;;;3.87;3.57;;;;;;;8.32;100.00;-10726.56;5071469;28;20587;-65
2023/01/16 04:25:18;;;;;;;5.37;4.10;;;;;;;8.26;100.00;-11043.09;5070987;28;20197;-64
2023/01/16 04:27:44;;;;;;;4.13;3.60;;;;;;;8.45;100.00;-11680.19;5071118;28;20193;-65
2023/01/16 04:30:12;;;;;;;4.20;3.90;;;;;;;8.41;100.00;-11679.56;5071000;28;20185;-64
2023/01/16 04:32:39;;;;;;;3.57;3.37;;;;;;;8.43;100.00;-11679.84;5071283;28;20638;-64
2023/01/16 04:35:07;;;;;;;3.80;3.50;;;;;;;8.45;100.00;-11680.19;5071171;28;20312;-64
2023/01/16 04:37:36;;;;;;;3.70;3.50;;;;;;;8.51;100.00;-11998.34;5074604;28;20181;-65
2023/01/16 04:40:03;;;;;;;10.07;4.27;;;;;;;8.59;100.00;-12316.81;5075429;28;20556;-64
2023/01/16 04:42:30;;;;;;;3.77;3.57;;;;;;;8.51;100.00;-11363.69;5074546;28;20189;-64
2023/01/16 04:44:56;;;;;;;4.43;4.03;;;;;;;8.57;100.00;-11364.44;5074520;28;20191;-63
2023/01/16 04:47:23;;;;;;;5.10;3.73;;;;;;;8.48;100.00;-11045.88;5074403;28;20188;-64
2023/01/16 04:49:50;;;;;;;4.60;3.50;;;;;;;8.60;100.00;-11047.50;5074490;28;20239;-64
2023/01/16 04:52:17;;;;;;;3.90;3.60;;;;;;;8.52;100.00;-10094.13;5074670;28;20181;-63
2023/01/16 04:54:45;;;;;;;3.90;3.70;;;;;;;8.50;100.00;-9776.41;5074833;28;20567;-64
2023/01/16 04:57:12;;;;;;;4.43;3.90;;;;;;;8.52;100.00;-9776.63;5074579;28;20501;-65
2023/01/16 04:59:39;;;;;;;5.70;3.40;;;;;;;8.57;100.00;-9141.97;5074014;28;20189;-65
2023/01/16 05:02:06;;;;;;;3.63;3.43;;;;;;;8.54;100.00;-7871.09;5074575;28;20216;-64
2023/01/16 05:04:33;;;;;;;5.87;3.83;;;;;;;8.58;100.00;-6282.38;5074672;28;20208;-63
2023/01/16 05:07:00;;;;;;;5.50;3.60;;;;;;;8.52;100.00;-5328.34;5074232;28;20217;-64
2023/01/16 05:09:26;;;;;;;4.07;3.77;;;;;;;8.65;100.00;-4374.66;5074308;28;20224;-64
2023/01/16 05:11:55;;;;;;;4.43;4.00;;;;;;;8.75;100.00;-2783.66;5074243;28;20204;-65
2023/01/16 05:14:22;;;;;;;8.80;4.23;;;;;;;8.67;100.00;1037.84;5073914;28;20191;-63
2023/01/16 05:16:49;;;;;;;7.93;4.77;;;;;;;8.57;100.00;1993.03;5074320;28;20235;-64
2023/01/16 05:19:16;;;;;;;12.27;6.07;;;;;;;8.50;100.00;2311.16;5074168;28;20189;-63
2023/01/16 05:21:43;;;;;;;11.70;5.90;;;;;;;8.70;100.00;1356.72;5073924;28;20188;-64
2023/01/16 05:24:10;;;;;;;15.37;5.70;;;;;;;8.51;100.00;399.69;5074024;28;20177;-64
2023/01/16 05:26:37;;;;;;;12.40;5.10;;;;;;;8.61;100.00;-1192.13;5073712;28;20189;-64
2023/01/16 05:29:05;;;;;;;9.30;4.97;;;;;;;8.55;100.00;-1510.66;5073656;28;20189;-64
2023/01/16 05:31:32;;;;;;;7.10;4.87;;;;;;;8.47;100.00;-1829.16;5073672;28;20279;-63
2023/01/16 05:33:58;;;;;;;20.07;5.90;;;;;;;8.42;100.00;-2465.69;5073654;28;20234;-64
2023/01/16 05:36:25;;;;;;;16.27;6.23;;;;;;;8.30;100.00;-3420.00;5073525;28;20659;-64
2023/01/16 05:38:54;;;;;;;10.83;5.93;;;;;;;8.44;100.00;-3420.09;5073836;28;20607;-64
2023/01/16 05:41:21;;;;;;;16.50;6.27;;;;;;;8.46;100.00;-3738.16;5073728;28;20604;-63
2023/01/16 05:43:47;;;;;;;14.80;6.07;;;;;;;8.55;100.00;-3101.97;5073211;28;20185;-65
2023/01/16 05:46:17;;;;;;;10.63;4.93;;;;;;;8.57;100.00;-1828.94;5073126;28;20177;-64
2023/01/16 05:48:44;;;;;;;5.90;4.93;;;;;;;8.66;100.00;400.53;5073875;28;20191;-64
2023/01/16 05:51:11;;;;;;;4.93;4.63;;;;;;;8.64;100.00;2949.94;5072882;28;20563;-63
2023/01/16 05:53:39;;;;;;;3.90;3.70;;;;;;;8.74;100.00;4545.63;5073349;28;20568;-64
2023/01/16 05:56:11;;;;;;;5.30;4.90;;;;;;;8.73;100.00;9014.66;5072887;28;20205;-64
2023/01/16 05:58:38;;;;;;;23.67;8.00;;;;;;;8.86;100.00;10295.66;5073419;28;20690;-64
2023/01/16 06:01:05;;;;;;;19.77;7.17;;;;;;;8.88;100.00;12534.28;5073055;28;20195;-64
2023/01/16 06:03:33;;;;;;;12.60;6.17;;;;;;;8.83;100.00;13172.75;5073044;28;20189;-65
2023/01/16 06:06:01;;;;;;;21.80;6.10;;;;;;;8.94;100.00;14455.91;5073067;28;20632;-63
2023/01/16 06:08:28;;;;;;;16.27;6.30;;;;;;;8.96;100.00;17338.44;5073187;28;20185;-63
2023/01/16 06:10:57;;;;;;;8.23;5.70;;;;;;;9.00;100.00;20865.97;5073018;28;20185;-64
2023/01/16 06:13:24;;;;;;;7.50;6.37;;;;;;;9.04;100.00;22792.84;5072760;28;20189;-64
2023/01/16 06:15:50;;;;;;;13.23;6.60;;;;;;;9.16;100.00;23440.00;5072541;28;20695;-64
2023/01/16 06:18:17;;;;;;;15.57;8.17;;;;;;;9.28;100.00;24087.13;5072860;28;20555;-63
2023/01/16 06:20:46;;;;;;;48.10;13.70;;;;;;;9.33;100.00;28589.41;5072509;28;20197;-65
2023/01/16 06:23:13;;;;;;;33.70;11.13;;;;;;;9.35;100.00;29555.84;5072446;28;20188;-64
2023/01/16 06:25:40;;;;;;;33.63;14.27;;;;;;;9.25;100.00;30515.72;5072344;28;20220;-64
2023/01/16 06:28:07;;;;;;;37.20;11.83;;;;;;;9.18;100.00;27617.53;5071922;28;20697;-64
2023/01/16 06:30:34;;;;;;;28.07;11.87;;;;;;;9.06;100.00;23435.66;5072885;28;20674;-63
2023/01/16 06:33:00;;;;;;;42.13;14.73;;;;;;;9.02;100.00;18943.03;5072449;28;20204;-63
2023/01/16 06:35:27;;;;;;;36.50;14.77;;;;;;;9.17;100.00;17025.00;5072086;28;20237;-61
2023/01/16 06:37:57;;;;;;;40.93;16.83;;;;;;;9.16;100.00;21193.28;5072365;28;20185;-66
2023/01/16 06:40:24;;;;;;;19.93;12.97;;;;;;;9.21;100.00;23763.09;5073698;28;20181;-61
2023/01/16 06:42:51;;;;;;;10.53;9.70;;;;;;;9.20;100.00;26332.59;5072695;28;20188;-61
2023/01/16 06:45:21;;;;;;;20.23;11.57;;;;;;;9.22;100.00;29548.84;5072699;28;20309;-65
2023/01/16 06:47:51;;;;;;;28.83;11.83;;;;;;;9.29;100.00;29230.66;5072732;28;20193;-66
2023/01/16 06:50:18;;;;;;;24.37;10.70;;;;;;;9.38;100.00;31810.31;5072690;28;20605;-65
2023/01/16 06:52:45;;;;;;;46.33;16.00;;;;;;;9.32;100.00;34061.63;5072552;28;20576;-65
2023/01/16 06:55:15;;;;;;;16.47;12.67;;;;;;;9.35;100.00;35352.44;5072650;28;20189;-64
2023/01/16 06:57:42;;;;;;;28.40;14.73;;;;;;;9.34;100.00;34062.84;5071874;28;20205;-66
2023/01/16 07:00:10;;;;;;;36.30;13.20;;;;;;;9.31;100.00;35027.66;5071404;28;20598;-66
2023/01/16 07:02:39;;;;;;;17.13;11.83;;;;;;;9.26;100.00;36636.06;5071690;28;20189;-65
2023/01/16 07:05:08;;;;;;;42.47;11.80;;;;;;;9.34;100.00;39221.75;5071657;28;20192;-66
2023/01/16 07:07:35;;;;;;;23.00;10.83;;;;;;;9.30;100.00;40187.09;5072110;28;20555;-66
2023/01/16 07:10:02;;;;;;;26.10;12.73;;;;;;;9.16;100.00;39209.25;5071867;28;20556;-65
2023/01/16 07:12:30;;;;;;;24.87;13.07;;;;;;;9.26;100.00;37603.38;5072235;28;20184;-66
2023/01/16 07:23:20;;;;;;;24.87;9.03;;;;;;;9.04;100.00;31469.31;5072305;28;20721;-66
2023/01/16 07:25:47;;;;;;;26.57;10.50;;;;;;;9.05;100.00;28253.88;5072355;28;20189;-66
2023/01/16 07:28:18;;;;;;;18.63;11.63;;;;;;;9.05;100.00;26967.97;5072754;28;20191;-67
2023/01/16 07:30:46;;;;;;;65.47;24.50;;;;;;;9.15;100.00;27937.25;5072457;28;20227;-66
2023/01/16 07:33:16;;;;;;;30.03;14.80;;;;;;;9.16;100.00;30832.53;5071925;28;20528;-66
2023/01/16 07:35:45;;;;;;;16.70;11.73;;;;;;;9.22;100.00;35022.00;5031361;28;20193;-66
2023/01/16 07:38:12;;;;;;;9.03;8.23;;;;;;;9.23;100.00;39214.09;5031559;28;20190;-66
2023/01/16 07:40:38;;;;;;;15.30;9.27;;;;;;;9.26;100.00;40829.75;5031259;28;20628;-66
2023/01/16 07:43:05;;;;;;;23.30;10.20;;;;;;;9.27;100.00;40507.72;5032526;28;20190;-67
2023/01/16 07:45:34;;;;;;;28.43;9.33;;;;;;;9.25;100.00;40829.03;5030821;28;20277;-65
2023/01/16 07:48:01;;;;;;;11.80;6.73;;;;;;;9.26;100.00;45675.16;5031053;28;20190;-66
2023/01/16 07:50:28;;;;;;;41.47;11.07;;;;;;;9.50;100.00;48929.81;5031164;28;20194;-66
2023/01/16 07:52:56;;;;;;;26.60;12.63;;;;;;;9.48;100.00;55408.03;5030950;28;20182;-66
2023/01/16 07:55:23;;;;;;;16.03;9.73;;;;;;;9.42;100.00;57996.94;5043785;28;20192;-66
2023/01/16 07:57:52;;;;;;;33.90;12.30;;;;;;;9.42;100.00;51837.09;5051082;28;20209;-65
2023/01/16 08:00:19;;;;;;;17.17;10.03;;;;;;;9.39;100.00;54102.09;5050917;28;20196;-64
2023/01/16 08:02:48;;;;;;;21.53;10.33;;;;;;;9.50;100.00;54761.41;5050975;28;20189;-65
2023/01/16 08:05:15;;;;;;;12.77;9.17;;;;;;;9.51;100.00;59953.94;5050568;28;20190;-65
2023/01/16 08:07:41;;;;;;;29.33;9.93;;;;;;;10.00;100.00;66511.47;5051061;28;20213;-65
2023/01/16 08:10:10;;;;;;;12.67;9.20;;;;;;;10.47;100.00;120429.75;5052076;28;20193;-66
2023/01/16 08:12:38;;;;;;;19.60;8.90;;;;;;;10.97;100.00;148799.47;5054901;28;20200;-65
2023/01/16 08:15:06;;;;;;;9.13;8.27;;;;;;;11.42;100.00;148910.75;5054680;28;20189;-64
2023/01/16 08:17:33;;;;;;;12.23;8.50;;;;;;;12.22;100.00;149111.97;5054925;28;20236;-65
2023/01/16 08:20:01;;;;;;;8.40;7.50;;;;;;;12.59;100.00;149204.41;5054847;28;20186;-64
2023/01/16 08:22:28;;;;;;;12.10;8.83;;;;;;;12.73;100.00;149238.59;5070017;28;20280;-64
2023/01/16 08:24:55;;;;;;;10.00;8.83;;;;;;;12.92;100.00;149285.44;5054428;28;20185;-65
2023/01/16 08:27:21;;;;;;;21.87;9.60;;;;;;;12.86;100.00;149270.25;5054351;28;20537;-65
2023/01/16 08:29:48;;;;;;;14.53;8.97;;;;;;;13.17;100.00;149348.81;5054403;28;20225;-65
2023/01/16 08:32:15;;;;;;;21.07;9.07;;;;;;;14.05;100.00;149570.53;5054196;28;20185;-64
2023/01/16 08:34:42;;;;;;;14.63;9.20;;;;;;;14.94;100.00;149793.75;5078247;28;20234;-65
2023/01/16 08:37:11;;;;;;;8.07;7.33;;;;;;;14.76;100.00;149746.84;5095434;28;20567;-65
2023/01/16 08:39:38;;;;;;;10.33;9.37;;;;;;;14.62;100.00;149712.59;5094549;28;20199;-64
2023/01/16 08:53:05;;;;;;;8.37;5.63;;;;;;;13.89;100.00;149528.72;5094434;28;20211;-64
2023/01/16 08:55:32;;;;;;;19.00;6.57;;;;;;;13.53;100.00;149440.03;5094656;28;20199;-64
2023/01/16 08:57:59;;;;;;;7.20;6.40;;;;;;;13.30;100.00;149380.47;5094455;28;20210;-64
2023/01/16 09:00:26;;;;;;;6.40;5.90;;;;;;;13.46;100.00;149421.00;5094347;28;20207;-65
2023/01/16 09:02:56;;;;;;;5.53;5.23;;;;;;;13.02;100.00;149312.06;5092612;28;20234;-65
2023/01/16 09:05:23;;;;;;;5.97;5.60;;;;;;;12.87;100.00;149274.03;5094060;28;20280;-64
2023/01/16 09:07:49;;;;;;;10.37;5.57;;;;;;;13.13;100.00;149339.94;5094220;28;20559;-64
2023/01/16 09:10:18;;;;;;;7.70;6.80;;;;;;;12.99;100.00;149304.41;5094040;28;20238;-64
2023/01/16 09:15:30;;;;;;;5.77;5.37;;;;;;;14.72;100.00;149737.97;5093891;28;20251;-65
2023/01/16 09:17:57;;;;;;;6.20;5.63;;;;;;;15.82;100.00;150013.31;5093430;28;20213;-64
2023/01/16 09:20:23;;;;;;;5.43;5.00;;;;;;;15.99;100.00;150056.47;5093837;28;20276;-65
2023/01/16 09:22:57;;;;;;;6.00;5.50;;;;;;;15.36;100.00;149897.78;5092844;28;20195;-65
2023/01/16 09:25:26;;;;;;;7.77;6.53;;;;;;;14.18;100.00;149602.22;5093547;28;20516;-65
2023/01/16 09:27:53;;;;;;;7.70;6.67;;;;;;;13.62;100.00;149461.59;5093684;28;20180;-65
2023/01/16 09:30:20;;;;;;;6.73;6.03;;;;;;;13.49;100.00;149429.91;5093887;28;20229;-66
2023/01/16 09:32:47;;;;;;;22.57;7.27;;;;;;;13.36;100.00;149395.69;5093853;28;20662;-65
2023/01/16 09:35:15;;;;;;;11.33;7.23;;;;;;;13.42;100.00;149410.88;5093208;28;20227;-65
2023/01/16 09:37:46;;;;;;;7.07;6.37;;;;;;;12.90;100.00;149280.41;5093292;28;20208;-66
2023/01/16 09:40:16;;;;;;;21.40;8.13;;;;;;;12.58;100.00;149200.59;5093327;28;20184;-64
2023/01/16 09:45:40;;;;;;;8.97;6.40;;;;;;;12.13;100.00;149087.97;5093230;28;20187;-65
2023/01/16 09:48:15;;;;;;;6.77;6.37;;;;;;;11.91;100.00;149033.53;5093387;28;20207;-66
2023/01/16 09:50:46;;;;;;;7.97;6.90;;;;;;;11.76;100.00;148995.56;5099007;28;20187;-65
2023/01/16 09:59:01;;;;;;;6.00;5.70;;;;;;;11.25;100.00;148869.00;5093198;28;20175;-61
2023/01/16 10:01:33;;;;;;;5.17;4.87;;;;;;;10.87;100.00;148772.91;5092997;28;20195;-59
2023/01/16 10:04:19;;;;;;;6.63;6.17;;;;;;;10.79;100.00;148752.69;5093158;28;20184;-60
2023/01/16 10:06:55;;;;;;;6.23;5.93;;;;;;;10.68;100.00;148726.16;5092908;28;20188;-61
2023/01/16 10:09:31;;;;;;;7.47;6.83;;;;;;;10.52;100.00;148685.72;5093126;28;20222;-60
2023/01/16 10:12:03;;;;;;;8.00;6.83;;;;;;;10.71;100.00;148732.44;5092763;28;20199;-59
2023/01/16 10:14:51;;;;;;;6.53;6.23;;;;;;;10.52;100.00;148685.72;5093227;28;20192;-61
2023/01/16 10:17:25;;;;;;;8.63;7.77;;;;;;;10.44;100.00;148666.72;5092862;28;20218;-60
2023/01/16 10:20:18;;;;;;;7.33;6.83;;;;;;;11.15;100.00;148842.47;5092662;28;20179;-60
2023/01/16 10:23:01;;;;;;;7.37;6.73;;;;;;;12.20;100.00;149106.94;5093099;28;20188;-59
2023/01/16 10:25:32;;;;;;;6.87;6.47;;;;;;;12.31;100.00;149134.75;5092363;28;20199;-59
2023/01/16 10:28:19;;;;;;;23.03;8.50;;;;;;;11.99;100.00;149053.78;5092223;28;20283;-60
2023/01/16 10:30:53;;;;;;;14.43;8.60;;;;;;;11.76;100.00;148995.56;5092531;28;20535;-59
2023/01/16 10:33:31;;;;;;;7.63;6.60;;;;;;;11.64;100.00;148965.16;5092288;28;20192;-60
2023/01/16 10:36:01;;;;;;;11.70;6.97;;;;;;;11.76;100.00;148995.56;5092708;28;20187;-59
2023/01/16 10:38:40;;;;;;;7.97;7.30;;;;;;;11.69;100.00;148977.81;5074668;28;20230;-61
2023/01/16 10:49:25;;;;;;;14.90;7.03;;;;;;;11.40;100.00;148906.97;5092311;28;20207;-59
2023/01/16 10:49:33;;;;;;;24.93;9.97;;;;;;;11.50;100.00;148929.75;5092294;28;20187;-59
2023/01/16 10:52:03;;;;;;;8.87;8.10;;;;;;;11.77;100.00;148998.09;5091975;28;20279;-59
2023/01/16 10:54:30;;;;;;;7.13;6.83;;;;;;;11.81;100.00;149008.22;5092090;28;20184;-59
2023/01/16 10:57:01;;;;;;;7.27;6.87;;;;;;;11.72;100.00;148986.69;5092455;28;20204;-60
2023/01/16 10:59:29;;;;;;;8.57;7.70;;;;;;;11.74;100.00;148991.78;5092622;28;20224;-65
2023/01/16 11:02:04;;;;;;;9.60;7.60;;;;;;;11.60;100.00;148956.28;5092863;28;20188;-66
2023/01/16 11:04:36;;;;;;;6.97;6.63;;;;;;;11.52;100.00;148934.78;5092506;28;20195;-66
2023/01/16 11:07:15;;;;;;;6.63;6.10;;;;;;;11.38;100.00;148901.91;5092584;28;20176;-65
2023/01/16 11:09:45;;;;;;;11.80;7.70;;;;;;;11.38;100.00;148900.63;5092032;28;20229;-65
2023/01/16 11:20:49;;;;;;;9.90;7.90;;;;;;;11.30;100.00;148880.41;5092140;28;20685;-66
2023/01/16 11:23:20;;;;;;;10.83;7.77;;;;;;;11.19;100.00;148852.59;5074879;28;20211;-65
2023/01/16 11:25:50;;;;;;;7.97;7.33;;;;;;;11.30;100.00;148881.66;5091756;28;20181;-66
2023/01/16 11:28:21;;;;;;;8.03;7.43;;;;;;;11.28;100.00;148875.38;5091689;28;20559;-65
2023/01/16 11:30:52;;;;;;;8.07;7.23;;;;;;;11.38;100.00;148900.63;5073487;28;20196;-64
2023/01/16 11:33:24;;;;;;;7.90;7.30;;;;;;;11.71;100.00;148982.88;5090886;28;20373;-63
2023/01/16 11:35:56;;;;;;;10.10;8.37;;;;;;;11.80;100.00;149005.66;5091281;28;20208;-63
2023/01/16 11:38:24;;;;;;;7.67;7.27;;;;;;;11.76;100.00;148995.56;5091077;28;20207;-66
2023/01/16 11:40:56;;;;;;;8.00;7.53;;;;;;;11.69;100.00;148977.81;5090995;28;20188;-65
2023/01/16 11:46:29;;;;;;;10.17;8.10;;;;;;;11.50;100.00;148929.75;5085179;28;20191;-66
2023/01/16 11:49:01;;;;;;;20.50;8.40;;;;;;;11.57;100.00;148947.44;5071539;28;20659;-64
2023/01/16 11:51:30;;;;;;;8.47;7.73;;;;;;;11.65;100.00;148967.69;5071450;28;20242;-65
2023/01/16 11:53:59;;;;;;;9.33;7.73;;;;;;;11.52;100.00;148936.06;5071061;28;20199;-65
2023/01/16 11:56:46;;;;;;;12.13;8.07;;;;;;;11.54;100.00;148941.16;5070602;28;20262;-64
2023/01/16 11:59:25;;;;;;;11.00;8.00;;;;;;;11.55;100.00;148942.38;5070649;28;20272;-64
2023/01/16 12:02:19;;;;;;;16.33;9.10;;;;;;;11.53;100.00;148937.34;5070773;28;20184;-64
2023/01/16 12:08:06;;;;;;;18.23;10.70;;;;;;;11.23;100.00;148863.97;5071001;28;20179;-59
2023/01/16 12:10:43;;;;;;;19.77;11.10;;;;;;;11.20;100.00;148856.34;5070882;28;20241;-59
2023/01/16 12:16:09;;;;;;;19.80;11.47;;;;;;;11.22;100.00;148861.44;5070874;28;20399;-58
2023/01/16 12:18:46;;;;;;;10.53;9.47;;;;;;;11.31;100.00;148882.94;5070740;28;20582;-59
2023/01/16 12:21:27;;;;;;;9.90;9.30;;;;;;;11.15;100.00;148843.75;5104524;28;20195;-64
2023/01/16 12:24:15;;;;;;;11.10;9.60;;;;;;;11.24;100.00;148865.25;5111217;28;20206;-64
2023/01/16 12:26:53;;;;;;;15.87;10.63;;;;;;;11.20;100.00;148856.34;5111852;28;20275;-65
2023/01/16 12:29:33;;;;;;;22.83;11.63;;;;;;;11.18;100.00;148525.13;5111115;28;20179;-65
2023/01/16 12:32:14;;;;;;;10.50;9.63;;;;;;;11.07;100.00;148556.13;5111340;28;20217;-65
2023/01/16 12:35:04;;;;;;;15.23;10.67;;;;;;;11.04;100.00;138450.94;5110865;28;20246;-65
2023/01/16 12:37:48;;;;;;;18.33;11.20;;;;;;;10.90;100.00;120184.66;5110793;28;20225;-66
2023/01/16 12:40:28;;;;;;;15.20;10.50;;;;;;;10.87;100.00;110257.94;5110952;28;20664;-64